createdAt,value
2023-05-02T00:00:54.722Z,101041.69
2023-05-02T00:03:21.406Z,101045.16
2023-05-02T00:05:48.078Z,101037.19
2023-05-02T00:08:14.735Z,101042.53
2023-05-02T00:10:41.335Z,101033.66
2023-05-02T00:13:07.964Z,101048.44
2023-05-02T00:15:34.551Z,101040.69
2023-05-02T00:18:01.400Z,101039.88
2023-05-02T00:20:27.983Z,101038.16
2023-05-02T00:22:56.908Z,101047.88
2023-05-02T00:25:23.616Z,101049.97
2023-05-02T00:27:51.191Z,101045.84
2023-05-02T00:30:18.577Z,101051.91
2023-05-02T00:32:45.560Z,101054.38
2023-05-02T00:35:12.414Z,101050.91
2023-05-02T00:37:39.207Z,101049.00
2023-05-02T00:40:07.961Z,101057.72
2023-05-02T00:42:36.205Z,101057.75
2023-05-02T00:45:06.399Z,101063.00
2023-05-02T00:47:33.417Z,101059.25
2023-05-02T00:50:01.400Z,101065.13
2023-05-02T00:52:28.981Z,101061.75
2023-05-02T00:54:56.042Z,101067.59
2023-05-02T00:57:23.129Z,101070.38
2023-05-02T00:59:51.039Z,101070.56
2023-05-02T01:02:32.440Z,101070.72
2023-05-02T01:05:17.368Z,101066.31
2023-05-02T01:07:43.950Z,101072.47
2023-05-02T01:10:21.193Z,101069.03
2023-05-02T01:12:56.950Z,101064.13
2023-05-02T01:15:23.896Z,101073.19
2023-05-02T01:17:52.755Z,101067.97
2023-05-02T01:20:23.596Z,101076.06
2023-05-02T01:22:52.255Z,101065.53
2023-05-02T01:25:24.928Z,101066.19
2023-05-02T01:27:57.985Z,101066.25
2023-05-02T01:30:28.090Z,101060.41
2023-05-02T01:32:57.585Z,101064.19
2023-05-02T01:35:24.900Z,101070.72
2023-05-02T01:37:53.125Z,101069.41
2023-05-02T01:40:22.534Z,101080.59
2023-05-02T01:42:51.791Z,101086.50
2023-05-02T01:45:21.203Z,101088.00
2023-05-02T01:47:48.843Z,101090.53
2023-05-02T01:50:20.302Z,101091.50
2023-05-02T01:52:51.281Z,101100.28
2023-05-02T01:55:18.382Z,101101.91
2023-05-02T01:57:47.230Z,101114.44
2023-05-02T02:00:17.570Z,101114.31
2023-05-02T02:02:46.200Z,101109.00
2023-05-02T02:05:14.778Z,101117.66
2023-05-02T02:07:42.820Z,101117.09
2023-05-02T02:10:09.616Z,101125.59
2023-05-02T02:13:00.974Z,101133.53
2023-05-02T02:15:29.116Z,101131.34
2023-05-02T02:18:05.204Z,101132.78
2023-05-02T02:20:32.681Z,101135.66
2023-05-02T02:23:03.210Z,101132.44
2023-05-02T02:25:30.314Z,101139.38
2023-05-02T02:27:57.193Z,101137.38
2023-05-02T02:30:23.835Z,101137.19
2023-05-02T02:32:52.591Z,101148.75
2023-05-02T02:35:19.700Z,101152.06
2023-05-02T02:38:11.337Z,101155.28
2023-05-02T02:40:51.294Z,101149.66
2023-05-02T02:43:33.540Z,101149.53
2023-05-02T02:46:32.638Z,101151.59
2023-05-02T02:49:18.027Z,101164.69
2023-05-02T02:51:49.164Z,101160.84
2023-05-02T02:54:26.876Z,101157.00
2023-05-02T02:57:04.519Z,101150.00
2023-05-02T02:59:37.958Z,101158.44
2023-05-02T03:02:09.897Z,101159.13
2023-05-02T03:04:40.895Z,101157.75
2023-05-02T03:07:08.102Z,101167.69
2023-05-02T03:09:45.329Z,101169.66
2023-05-02T03:12:16.424Z,101174.63
2023-05-02T03:14:44.268Z,101173.19
2023-05-02T03:17:11.575Z,101179.19
2023-05-02T03:19:38.306Z,101169.78
2023-05-02T03:22:05.848Z,101180.41
2023-05-02T03:24:34.590Z,101184.56
2023-05-02T03:27:02.183Z,101188.56
2023-05-02T03:29:35.039Z,101180.66
2023-05-02T03:32:01.702Z,101187.69
2023-05-02T03:34:28.603Z,101181.13
2023-05-02T03:36:55.861Z,101191.53
2023-05-02T03:39:22.693Z,101198.06
2023-05-02T03:41:49.297Z,101196.72
2023-05-02T03:44:19.173Z,101187.97
2023-05-02T03:46:48.236Z,101196.91
2023-05-02T03:49:14.982Z,101197.50
2023-05-02T03:51:44.375Z,101204.00
2023-05-02T03:54:11.061Z,101197.03
2023-05-02T03:56:42.701Z,101206.78
2023-05-02T03:59:24.408Z,101203.75
2023-05-02T04:01:51.655Z,101207.16
2023-05-02T04:04:22.365Z,101218.19
2023-05-02T04:06:51.979Z,101218.50
2023-05-02T04:09:23.534Z,101229.31
2023-05-02T04:11:54.212Z,101226.00
2023-05-02T04:14:21.384Z,101229.47
2023-05-02T04:16:50.639Z,101233.72
2023-05-02T04:19:23.213Z,101233.16
2023-05-02T04:21:49.732Z,101243.91
2023-05-02T04:24:17.045Z,101232.47
2023-05-02T04:26:44.748Z,101242.81
2023-05-02T04:29:13.552Z,101244.91
2023-05-02T04:31:41.315Z,101239.22
2023-05-02T04:34:09.234Z,101254.19
2023-05-02T04:36:41.937Z,101252.00
2023-05-02T04:39:11.574Z,101248.31
2023-05-02T04:41:43.104Z,101263.13
2023-05-02T04:44:09.717Z,101261.44
2023-05-02T04:46:37.765Z,101267.50
2023-05-02T04:49:04.483Z,101264.53
2023-05-02T04:51:31.683Z,101275.97
2023-05-02T04:53:58.643Z,101279.72
2023-05-02T04:56:26.331Z,101277.84
2023-05-02T04:58:52.923Z,101284.25
2023-05-02T05:01:19.683Z,101291.88
2023-05-02T05:03:47.081Z,101301.06
2023-05-02T05:06:16.025Z,101294.91
2023-05-02T05:08:45.554Z,101306.94
2023-05-02T05:11:13.402Z,101302.16
2023-05-02T05:13:41.973Z,101317.00
2023-05-02T05:16:10.520Z,101322.34
2023-05-02T05:18:40.958Z,101326.13
2023-05-02T05:21:10.598Z,101335.63
2023-05-02T05:23:38.315Z,101338.97
2023-05-02T05:26:15.251Z,101336.44
2023-05-02T05:28:44.814Z,101337.38
2023-05-02T05:31:16.910Z,101337.25
2023-05-02T05:33:46.956Z,101348.78
2023-05-02T05:36:14.966Z,101351.59
2023-05-02T05:38:41.824Z,101352.13
2023-05-02T05:41:11.015Z,101355.25
2023-05-02T05:43:41.318Z,101362.41
2023-05-02T05:46:08.393Z,101369.00
2023-05-02T05:48:36.642Z,101368.41
2023-05-02T05:51:06.827Z,101377.94
2023-05-02T05:53:34.129Z,101380.72
2023-05-02T05:56:13.293Z,101383.31
2023-05-02T05:58:49.041Z,101380.97
2023-05-02T06:01:16.591Z,101384.13
2023-05-02T06:03:43.286Z,101391.25
2023-05-02T06:06:09.961Z,101401.66
2023-05-02T06:08:36.591Z,101409.50
2023-05-02T06:11:08.920Z,101412.78
2023-05-02T06:13:35.496Z,101406.94
2023-05-02T06:16:02.867Z,101419.06
2023-05-02T06:18:29.952Z,101409.50
2023-05-02T06:20:56.620Z,101418.28
2023-05-02T06:23:23.203Z,101416.53
2023-05-02T06:25:50.340Z,101423.28
2023-05-02T06:28:16.901Z,101442.88
2023-05-02T06:30:43.459Z,101451.81
2023-05-02T06:33:10.201Z,101454.19
2023-05-02T06:35:36.805Z,101453.59
2023-05-02T06:38:03.337Z,101462.75
2023-05-02T06:40:29.918Z,101475.78
2023-05-02T06:42:56.497Z,101481.59
2023-05-02T06:45:23.061Z,101487.88
2023-05-02T06:47:49.860Z,101492.63
2023-05-02T06:50:16.436Z,101501.47
2023-05-02T06:52:42.958Z,101498.28
2023-05-02T06:55:09.760Z,101510.22
2023-05-02T06:57:36.339Z,101500.78
2023-05-02T07:00:04.297Z,101524.78
2023-05-02T07:02:31.041Z,101523.03
2023-05-02T07:04:57.590Z,101528.13
2023-05-02T07:07:24.123Z,101535.47
2023-05-02T07:09:50.682Z,101534.41
2023-05-02T07:12:17.220Z,101544.78
2023-05-02T07:14:46.757Z,101548.22
2023-05-02T07:17:13.248Z,101566.66
2023-05-02T07:19:40.000Z,101561.91
2023-05-02T07:22:07.140Z,101563.63
2023-05-02T07:24:33.746Z,101564.06
2023-05-02T07:27:00.753Z,101570.59
2023-05-02T07:29:27.498Z,101573.78
2023-05-02T07:31:54.137Z,101584.47
2023-05-02T07:34:20.674Z,101586.28
2023-05-02T07:36:47.145Z,101602.78
2023-05-02T07:39:13.688Z,101594.22
2023-05-02T07:41:40.243Z,101597.81
2023-05-02T07:44:06.837Z,101597.81
2023-05-02T07:46:33.493Z,101601.84
2023-05-02T07:49:00.112Z,101608.28
2023-05-02T07:51:26.863Z,101612.78
2023-05-02T07:53:55.633Z,101624.34
2023-05-02T07:56:22.162Z,101613.28
2023-05-02T07:58:48.800Z,101618.75
2023-05-02T08:01:15.412Z,101617.50
2023-05-02T08:03:42.302Z,101631.88
2023-05-02T08:06:09.845Z,101628.00
2023-05-02T08:08:37.196Z,101638.75
2023-05-02T08:11:04.576Z,101646.69
2023-05-02T08:13:31.179Z,101647.81
2023-05-02T08:15:58.469Z,101648.91
2023-05-02T08:18:25.656Z,101650.22
2023-05-02T08:20:52.981Z,101661.63
2023-05-02T08:23:20.761Z,101657.19
2023-05-02T08:25:47.268Z,101663.00
2023-05-02T08:28:13.883Z,101681.72
2023-05-02T08:30:40.592Z,101677.75
2023-05-02T08:33:07.355Z,101677.78
2023-05-02T08:35:33.879Z,101680.91
2023-05-02T08:38:00.668Z,101680.84
2023-05-02T08:40:38.221Z,101692.16
2023-05-02T08:43:08.524Z,101696.94
2023-05-02T08:45:39.200Z,101692.03
2023-05-02T08:48:10.911Z,101706.53
2023-05-02T08:50:38.984Z,101713.25
2023-05-02T08:53:07.117Z,101709.91
2023-05-02T08:55:39.920Z,101712.66
2023-05-02T08:58:08.455Z,101717.47
2023-05-02T09:00:40.765Z,101714.31
2023-05-02T09:03:37.212Z,101721.53
2023-05-02T09:06:10.815Z,101732.34
2023-05-02T09:08:37.950Z,101720.00
2023-05-02T09:11:09.394Z,101724.81
2023-05-02T09:13:43.070Z,101735.03
2023-05-02T09:16:15.255Z,101734.41
2023-05-02T09:18:46.876Z,101740.50
2023-05-02T09:21:21.159Z,101739.31
2023-05-02T09:23:56.911Z,101744.31
2023-05-02T09:26:35.181Z,101742.63
2023-05-02T09:29:04.678Z,101744.25
2023-05-02T09:34:16.443Z,101748.81
2023-05-02T09:36:46.146Z,101743.72
2023-05-02T09:39:15.054Z,101766.19
2023-05-02T09:41:48.285Z,101767.81
2023-05-02T09:44:18.392Z,101771.56
2023-05-02T09:46:49.614Z,101771.69
2023-05-02T09:49:19.950Z,101775.31
2023-05-02T09:51:48.000Z,101766.09
2023-05-02T09:54:38.452Z,101774.63
2023-05-02T09:57:07.084Z,101778.63
2023-05-02T09:59:33.911Z,101780.09
2023-05-02T10:02:03.367Z,101786.09
2023-05-02T10:04:31.069Z,101785.94
2023-05-02T10:06:58.731Z,101775.53
2023-05-02T10:09:27.022Z,101784.53
2023-05-02T10:11:55.360Z,101793.72
2023-05-02T10:14:26.794Z,101794.34
2023-05-02T10:17:26.739Z,101794.94
2023-05-02T10:20:07.949Z,101807.09
2023-05-02T10:22:35.284Z,101808.50
2023-05-02T10:25:03.920Z,101811.59
2023-05-02T10:27:32.174Z,101811.69
2023-05-02T10:30:00.377Z,101808.88
2023-05-02T10:32:30.118Z,101810.41
2023-05-02T10:34:57.312Z,101821.91
2023-05-02T10:37:28.942Z,101817.78
2023-05-02T10:39:55.684Z,101813.06
2023-05-02T10:42:23.674Z,101813.47
2023-05-02T10:44:51.122Z,101811.03
2023-05-02T10:47:23.004Z,101821.50
2023-05-02T10:49:52.965Z,101819.28
2023-05-02T10:52:34.050Z,101815.75
2023-05-02T10:55:19.828Z,101816.44
2023-05-02T10:58:01.403Z,101816.34
2023-05-02T11:00:33.712Z,101808.91
2023-05-02T11:03:02.271Z,101809.47
2023-05-02T11:05:29.547Z,101808.69
2023-05-02T11:08:14.902Z,101814.31
2023-05-02T11:10:41.617Z,101811.50
2023-05-02T11:13:08.339Z,101814.78
2023-05-02T11:15:41.187Z,101822.84
2023-05-02T11:18:12.780Z,101821.66
2023-05-02T11:20:44.841Z,101818.94
2023-05-02T11:23:18.158Z,101822.78
2023-05-02T11:25:48.491Z,101826.19
2023-05-02T11:28:36.839Z,101823.91
2023-05-02T11:31:05.319Z,101825.50
2023-05-02T11:33:32.215Z,101831.34
2023-05-02T11:35:58.851Z,101827.03
2023-05-02T11:38:27.294Z,101826.22
2023-05-02T11:40:59.935Z,101832.34
2023-05-02T11:43:30.816Z,101839.28
2023-05-02T11:46:00.026Z,101845.69
2023-05-02T11:48:42.060Z,101853.19
2023-05-02T11:51:34.812Z,101861.97
2023-05-02T11:54:09.936Z,101857.28
2023-05-02T11:56:45.092Z,101862.47
2023-05-02T11:59:28.829Z,101870.63
2023-05-02T12:02:10.420Z,101871.31
2023-05-02T12:05:00.053Z,101870.81
2023-05-02T12:08:01.387Z,101879.66
2023-05-02T12:10:44.481Z,101873.38
2023-05-02T12:13:25.797Z,101885.72
2023-05-02T12:16:04.064Z,101882.63
2023-05-02T12:18:45.857Z,101887.09
2023-05-02T12:21:23.561Z,101892.66
2023-05-02T12:24:16.391Z,101896.31
2023-05-02T12:26:51.264Z,101896.13
2023-05-02T12:30:27.536Z,101892.03
2023-05-02T12:32:48.620Z,101899.19
2023-05-02T12:35:33.670Z,101892.50
2023-05-02T12:38:29.312Z,101895.94
2023-05-02T12:41:03.506Z,101906.56
2023-05-02T12:43:46.185Z,101902.09
2023-05-02T12:46:21.554Z,101913.94
2023-05-02T12:49:15.017Z,101908.69
2023-05-02T12:52:02.951Z,101917.84
2023-05-02T12:54:33.237Z,101911.31
2023-05-02T12:57:41.482Z,101909.97
2023-05-02T13:00:27.080Z,101908.97
2023-05-02T13:02:57.886Z,101910.28
2023-05-02T13:05:30.484Z,101914.13
2023-05-02T13:08:02.557Z,101916.22
2023-05-02T13:10:37.394Z,101908.22
2023-05-02T13:13:11.293Z,101908.06
2023-05-02T13:15:57.807Z,101916.47
2023-05-02T13:21:11.178Z,101907.50
2023-05-02T13:47:42.392Z,101936.38
2023-05-02T13:50:12.024Z,101931.63
2023-05-02T13:52:38.747Z,101929.88
2023-05-02T13:55:07.264Z,101925.47
2023-05-02T13:57:38.432Z,101934.97
2023-05-02T14:00:09.159Z,101935.06
2023-05-02T14:02:36.846Z,101936.06
2023-05-02T14:05:03.977Z,101936.41
2023-05-02T14:07:30.619Z,101941.28
2023-05-02T14:09:57.392Z,101941.28
2023-05-02T14:12:24.090Z,101941.13
2023-05-02T14:14:50.628Z,101938.66
2023-05-02T14:17:17.392Z,101938.47
2023-05-02T14:19:43.932Z,101940.19
2023-05-02T14:22:10.474Z,101940.47
2023-05-02T14:24:37.023Z,101942.50
2023-05-02T14:27:04.629Z,101938.88
2023-05-02T14:29:31.261Z,101938.84
2023-05-02T14:31:57.857Z,101943.19
2023-05-02T14:34:26.862Z,101947.47
2023-05-02T14:36:56.896Z,101943.81
2023-05-02T14:39:27.426Z,101947.31
2023-05-02T14:41:54.194Z,101948.69
2023-05-02T14:44:20.731Z,101947.63
2023-05-02T14:46:52.187Z,101940.81
2023-05-02T14:49:19.038Z,101953.94
2023-05-02T14:51:48.839Z,101951.47
2023-05-02T14:54:19.394Z,101951.44
2023-05-02T14:56:46.083Z,101952.19
2023-05-02T14:59:12.727Z,101949.66
2023-05-02T15:01:39.385Z,101958.69
2023-05-02T15:04:07.666Z,101956.66
2023-05-02T15:06:35.991Z,101950.28
2023-05-02T15:09:03.710Z,101955.81
2023-05-02T15:11:30.676Z,101946.97
2023-05-02T15:13:59.962Z,101945.44
2023-05-02T15:16:29.491Z,101953.66
2023-05-02T15:18:56.101Z,101948.03
2023-05-02T15:21:22.996Z,101954.41
2023-05-02T15:23:49.590Z,101948.34
2023-05-02T15:26:16.201Z,101948.03
2023-05-02T15:28:42.819Z,101949.38
2023-05-02T15:31:09.429Z,101947.78
2023-05-02T15:33:37.508Z,101946.59
2023-05-02T15:36:04.359Z,101947.53
2023-05-02T15:38:30.996Z,101951.44
2023-05-02T15:40:58.814Z,101951.88
2023-05-02T15:43:30.143Z,101949.94
2023-05-02T15:45:58.654Z,101949.28
2023-05-02T15:48:33.151Z,101954.28
2023-05-02T15:50:59.883Z,101958.53
2023-05-02T15:53:26.467Z,101958.44
2023-05-02T15:55:53.167Z,101962.97
2023-05-02T15:58:20.274Z,101959.88
2023-05-02T16:00:47.518Z,101967.41
2023-05-02T16:03:15.372Z,101976.25
2023-05-02T16:05:42.086Z,101975.56
2023-05-02T16:08:08.781Z,101979.56
2023-05-02T16:10:36.587Z,101965.97
2023-05-02T16:13:03.638Z,101974.69
2023-05-02T16:15:30.543Z,101974.06
2023-05-02T16:17:57.408Z,101976.13
2023-05-02T16:20:24.075Z,101973.31
2023-05-02T16:22:51.354Z,101972.69
2023-05-02T16:25:18.940Z,101977.28
2023-05-02T16:27:45.686Z,101976.97
2023-05-02T16:30:13.210Z,101978.81
2023-05-02T16:32:40.461Z,101977.09
2023-05-02T16:35:10.825Z,101975.94
2023-05-02T16:37:37.789Z,101981.91
2023-05-02T16:40:05.920Z,101984.47
2023-05-02T16:42:34.662Z,101989.31
2023-05-02T16:45:01.420Z,101981.25
2023-05-02T16:47:28.279Z,101987.13
2023-05-02T16:49:56.154Z,101998.09
2023-05-02T16:52:23.123Z,101995.97
2023-05-02T16:54:50.407Z,101993.25
2023-05-02T16:57:19.922Z,101994.00
2023-05-02T16:59:47.339Z,101995.00
2023-05-02T17:02:14.892Z,101996.34
2023-05-02T17:04:41.946Z,102002.75
2023-05-02T17:07:09.046Z,101994.00
2023-05-02T17:09:38.643Z,101993.31
2023-05-02T17:12:06.271Z,101996.41
2023-05-02T17:14:33.459Z,102006.47
2023-05-02T17:17:01.043Z,102011.63
2023-05-02T17:19:27.895Z,102007.09
2023-05-02T17:21:54.871Z,102017.97
2023-05-02T17:24:21.460Z,102017.66
2023-05-02T17:26:48.649Z,102015.88
2023-05-02T17:29:15.371Z,102014.16
2023-05-02T17:31:42.164Z,102023.88
2023-05-02T17:34:08.779Z,102027.44
2023-05-02T17:36:36.331Z,102033.06
2023-05-02T17:39:03.891Z,102031.47
2023-05-02T17:41:30.826Z,102029.72
2023-05-02T17:43:57.666Z,102012.94
2023-05-02T17:46:24.444Z,102025.34
2023-05-02T17:48:52.037Z,102028.69
2023-05-02T17:51:18.592Z,102024.63
2023-05-02T17:53:45.744Z,102028.47
2023-05-02T17:56:14.260Z,102030.91
2023-05-02T17:58:40.837Z,102024.69
2023-05-02T18:01:12.040Z,102026.91
2023-05-02T18:03:38.977Z,102031.50
2023-05-02T18:06:06.029Z,102025.22
2023-05-02T18:08:32.903Z,102038.25
2023-05-02T18:11:00.225Z,102027.97
2023-05-02T18:13:27.066Z,102039.50
2023-05-02T18:16:04.649Z,102034.47
2023-05-02T18:18:32.830Z,102032.78
2023-05-02T18:20:59.512Z,102042.28
2023-05-02T18:23:26.096Z,102043.81
2023-05-02T18:25:52.653Z,102045.78
2023-05-02T18:28:19.522Z,102045.47
2023-05-02T18:30:46.531Z,102050.78
2023-05-02T18:33:13.157Z,102053.34
2023-05-02T18:35:46.826Z,102054.22
2023-05-02T18:38:13.990Z,102055.09
2023-05-02T18:40:40.501Z,102054.50
2023-05-02T18:43:07.352Z,102060.38
2023-05-02T18:45:35.367Z,102059.13
2023-05-02T18:48:06.120Z,102056.22
2023-05-02T18:50:36.464Z,102053.28
2023-05-02T18:53:03.067Z,102063.63
2023-05-02T18:55:32.385Z,102062.97
2023-05-02T18:57:59.119Z,102054.25
2023-05-02T19:00:26.063Z,102063.31
2023-05-02T19:02:55.845Z,102062.31
2023-05-02T19:05:22.468Z,102071.94
2023-05-02T19:07:49.054Z,102076.44
2023-05-02T19:10:15.879Z,102074.59
2023-05-02T19:12:43.881Z,102084.44
2023-05-02T19:15:11.183Z,102075.03
2023-05-02T19:17:37.876Z,102078.53
2023-05-02T19:20:04.864Z,102070.84
2023-05-02T19:22:34.445Z,102085.31
2023-05-02T19:25:01.550Z,102091.41
2023-05-02T19:27:28.604Z,102095.72
2023-05-02T19:29:55.389Z,102091.28
2023-05-02T19:32:22.690Z,102096.44
2023-05-02T19:34:50.221Z,102096.16
2023-05-02T19:37:16.770Z,102100.94
2023-05-02T19:39:43.352Z,102105.94
2023-05-02T19:42:09.973Z,102103.47
2023-05-02T19:44:36.501Z,102102.31
2023-05-02T19:47:03.233Z,102108.22
2023-05-02T19:49:29.804Z,102112.59
2023-05-02T19:51:56.352Z,102103.00
2023-05-02T19:54:22.921Z,102109.78
2023-05-02T19:56:49.627Z,102102.56
2023-05-02T19:59:16.209Z,102105.34
2023-05-02T20:04:09.420Z,102116.25
2023-05-02T20:06:36.391Z,102112.97
2023-05-02T20:09:03.476Z,102110.28
2023-05-02T20:11:30.838Z,102118.75
2023-05-02T20:13:57.600Z,102120.34
2023-05-02T20:16:24.577Z,102127.38
2023-05-02T20:18:52.705Z,102123.72
2023-05-02T20:21:19.331Z,102133.97
2023-05-02T20:23:45.908Z,102132.81
2023-05-02T20:26:13.972Z,102138.59
2023-05-02T20:28:40.555Z,102139.38
2023-05-02T20:31:07.332Z,102134.28
2023-05-02T20:33:44.718Z,102137.47
2023-05-02T20:36:14.202Z,102136.22
2023-05-02T20:38:42.479Z,102133.41
2023-05-02T20:41:12.447Z,102138.41
2023-05-02T20:43:44.201Z,102140.00
2023-05-02T20:46:12.020Z,102142.19
2023-05-02T20:48:39.034Z,102139.00
2023-05-02T20:51:05.681Z,102132.53
2023-05-02T20:53:32.247Z,102147.91
2023-05-02T20:55:58.888Z,102147.19
2023-05-02T20:58:25.924Z,102141.81
2023-05-02T21:00:52.735Z,102142.19
2023-05-02T21:03:19.875Z,102139.31
2023-05-02T21:05:52.121Z,102146.88
2023-05-02T21:08:18.799Z,102138.00
2023-05-02T21:10:49.300Z,102131.88
2023-05-02T21:13:16.006Z,102145.72
2023-05-02T21:15:42.912Z,102147.06
2023-05-02T21:18:09.654Z,102140.28
2023-05-02T21:20:38.072Z,102149.78
2023-05-02T21:23:04.682Z,102148.47
2023-05-02T21:25:31.275Z,102154.31
2023-05-02T21:27:57.943Z,102147.34
2023-05-02T21:30:24.673Z,102151.03
2023-05-02T21:32:51.472Z,102152.34
2023-05-02T21:35:18.130Z,102152.97
2023-05-02T21:37:44.778Z,102150.31
2023-05-02T21:40:12.376Z,102147.34
2023-05-02T21:42:39.303Z,102151.53
2023-05-02T21:45:06.826Z,102148.84
2023-05-02T21:47:33.645Z,102152.50
2023-05-02T21:50:00.630Z,102149.75
2023-05-02T21:52:28.080Z,102157.94
2023-05-02T21:54:54.670Z,102157.47
2023-05-02T21:57:21.401Z,102149.59
2023-05-02T21:59:48.175Z,102152.03
2023-05-02T22:02:14.816Z,102150.91
2023-05-02T22:04:41.447Z,102145.47
2023-05-02T22:07:08.115Z,102147.09
2023-05-02T22:09:34.682Z,102148.28
2023-05-02T22:12:01.371Z,102158.28
2023-05-02T22:14:37.664Z,102160.06
2023-05-02T22:17:11.596Z,102162.50
2023-05-02T22:19:38.834Z,102168.50
2023-05-02T22:22:05.436Z,102170.78
2023-05-02T22:24:32.087Z,102168.81
2023-05-02T22:26:58.693Z,102167.03
2023-05-02T22:29:25.314Z,102171.16
2023-05-02T22:31:52.221Z,102185.41
2023-05-02T22:34:19.131Z,102175.28
2023-05-02T22:36:46.130Z,102172.69
2023-05-02T22:39:14.474Z,102176.75
2023-05-02T22:41:42.568Z,102179.72
2023-05-02T22:44:09.255Z,102178.81
2023-05-02T22:46:38.023Z,102182.59
2023-05-02T22:49:06.002Z,102179.72
2023-05-02T22:51:33.311Z,102178.66
2023-05-02T22:54:00.368Z,102179.09
2023-05-02T22:56:27.110Z,102180.97
2023-05-02T22:58:53.665Z,102185.31
2023-05-02T23:01:20.398Z,102186.38
2023-05-02T23:03:47.254Z,102186.63
2023-05-02T23:06:14.343Z,102184.22
2023-05-02T23:08:40.946Z,102186.44
2023-05-02T23:11:07.823Z,102184.94
2023-05-02T23:13:35.684Z,102186.44
2023-05-02T23:16:02.355Z,102184.41
2023-05-02T23:18:28.960Z,102186.69
2023-05-02T23:20:55.464Z,102181.81
2023-05-02T23:23:22.156Z,102186.03
2023-05-02T23:25:48.975Z,102189.81
2023-05-02T23:28:15.613Z,102177.69
2023-05-02T23:30:42.353Z,102179.69
2023-05-02T23:33:09.072Z,102183.03
2023-05-02T23:35:35.889Z,102183.66
2023-05-02T23:38:05.964Z,102183.41
2023-05-02T23:40:32.745Z,102180.56
2023-05-02T23:42:59.809Z,102181.72
2023-05-02T23:45:26.454Z,102188.50
2023-05-02T23:47:53.008Z,102183.69
2023-05-02T23:50:19.575Z,102182.53
2023-05-02T23:52:46.085Z,102195.56
2023-05-02T23:55:12.855Z,102188.47
2023-05-02T23:57:39.578Z,102176.81
